Latest Weather Observations for Tamworth Airport

IDN60801

Issued at 7:22 pm EDT Friday 23 October 2020 (issued every 10 minutes, with the page automatically refreshed every 10 minutes)

About weather observations | Map of weather stations | Latest weather observations for NSW | Other Formats
Station Details ID: 055325 Name: TAMWORTH AIRPORT AWS Lat: -31.07 Lon: 150.84 Height: 394.9 m
Data from the previous 72 hours. | See also: Recent months at Tamworth Airport
Date/Time
EDT
Temp
°C
App
Temp
°C
Dew
Point
°C
Rel
Hum
%
Delta-T
°C
Wind Press
QNH
hPa
Press
MSL
hPa
Rain since
9am
mm
Dir  Spd
km/h
Gust
km/h
Spd
kts
Gust
kts
23/07:00pm 25.2 24.0 16.1 57 5.7 NNW 17 24 9 13 1010.1 1008.9 0.0
23/06:30pm 25.6 24.5 15.3 53 6.3 NW 15 19 8 10 1009.9 1008.8 0.0
23/06:00pm 26.9 25.4 15.3 49 7.2 NNW 17 24 9 13 1009.6 1008.5 0.0
23/05:30pm 28.7 28.2 13.8 40 9.0 N 9 20 5 11 1009.0 1007.9 0.0
23/05:00pm 28.0 26.9 13.1 39 8.9 N 11 15 6 8 1009.2 1008.1 0.0
23/04:30pm 28.9 28.2 13.2 38 9.5 NNW 9 17 5 9 1009.6 1008.5 0.0
23/04:00pm 28.8 28.1 13.1 38 9.4 N 9 15 5 8 1010.2 1009.0 0.0
23/03:30pm 28.8 27.4 13.5 39 9.2 NNW 13 24 7 13 1010.6 1009.4 0.0
23/03:00pm 28.6 26.4 14.4 41 8.7 NNW 19 33 10 18 1011.2 1010.1 0.0
23/02:30pm 29.7 27.1 15.0 40 9.1 NNW 22 35 12 19 1011.6 1010.5 0.0
23/02:00pm 29.3 26.9 15.4 42 8.7 NNW 22 33 12 18 1011.9 1010.8 0.0
23/01:30pm 28.6 25.1 14.4 41 8.7 NNW 26 39 14 21 1012.4 1011.3 0.0
23/01:00pm 27.7 25.7 15.4 47 7.6 NW 20 33 11 18 1013.1 1012.0 0.0
23/12:30pm 27.7 26.9 14.0 43 8.3 NNW 11 24 6 13 1013.3 1012.2 0.0
23/12:00pm 27.2 25.6 14.9 47 7.6 N 17 30 9 16 1013.4 1012.3 0.0
23/11:30am 25.2 24.6 14.6 51 6.4 NE 11 22 6 12 1014.0 1012.9 0.0
23/11:00am 25.1 24.8 15.4 55 6.0 NNE 11 19 6 10 1014.5 1013.4 0.0
23/10:30am 24.4 24.5 16.4 61 5.0 NNW 11 20 6 11 1014.9 1013.8 0.0
23/10:00am 22.8 22.0 15.1 62 4.7 NNE 13 20 7 11 1015.1 1014.1 0.0
23/09:30am 21.9 21.8 15.0 65 4.2 N 9 17 5 9 1015.7 1014.6 0.0
23/09:00am 21.6 21.9 14.5 64 4.2 E 6 11 3 6 1015.8 1014.7 0.2
23/08:30am 19.5 20.2 14.5 73 3.0 S 4 9 2 5 1015.9 1014.8 0.2
23/08:00am 18.1 17.7 14.0 77 2.4 SE 9 13 5 7 1015.6 1014.5 0.2
23/07:30am 16.4 15.4 13.5 83 1.7 SSE 11 15 6 8 1015.2 1014.2 0.2
23/07:00am 14.8 14.2 13.5 92 0.7 SSE 9 13 5 7 1015.1 1014.1 0.2
23/06:30am 12.7 11.2 11.9 95 0.4 SSE 11 13 6 7 1015.0 1013.9 0.2
23/06:00am 13.0 11.9 12.1 94 0.5 SE 9 11 5 6 1014.7 1013.6 0.2
23/05:30am 13.1 10.9 12.2 94 0.5 S 15 17 8 9 1014.4 1013.3 0.2
23/05:00am 12.9 11.0 11.8 93 0.6 S 13 15 7 8 1013.9 1012.8 0.2
23/04:30am 13.3 11.6 12.4 94 0.5 SSE 13 17 7 9 1013.4 1012.3 0.2
23/04:00am 13.2 11.5 12.3 94 0.5 SSE 13 15 7 8 1013.5 1012.4 0.2
23/03:30am 13.4 11.3 12.5 94 0.5 S 15 17 8 9 1013.7 1012.6 0.2
23/03:00am 13.4 12.3 12.1 92 0.7 SE 9 11 5 6 1014.1 1013.0 0.2
23/02:30am 13.5 12.4 12.1 91 0.8 ESE 9 11 5 6 1014.6 1013.5 0.2
23/02:00am 14.3 13.1 12.7 90 0.9 SE 11 13 6 7 1014.8 1013.7 0.2
23/01:30am 14.3 13.5 11.8 85 1.4 SE 7 9 4 5 1015.0 1013.9 0.2
23/01:00am 15.1 13.6 13.0 87 1.2 SE 13 17 7 9 1015.1 1014.1 0.2
23/12:30am 14.7 12.7 12.7 88 1.1 SE 15 17 8 9 1015.3 1014.3 0.2
23/12:00am 15.4 13.5 13.1 86 1.3 SE 15 17 8 9 1015.7 1014.6 0.2
 
Date/Time
EDT
Temp
°C
App
Temp
°C
Dew
Point
°C
Rel
Hum
%
Delta-T
°C
Wind Press
QNH
hPa
Press
MSL
hPa
Rain since
9am
mm
Dir  Spd
km/h
Gust
km/h
Spd
kts
Gust
kts
22/11:30pm 15.3 13.4 13.0 86 1.3 SE 15 17 8 9 1015.9 1014.8 0.2
22/11:00pm 15.4 13.7 12.5 83 1.6 SSE 13 15 7 8 1016.0 1014.9 0.2
22/10:30pm 16.9 14.7 13.4 80 2.0 ESE 17 19 9 10 1015.9 1014.8 0.2
22/10:00pm 16.5 14.6 13.0 80 2.0 SE 15 19 8 10 1016.0 1014.9 0.2
22/09:30pm 17.3 15.5 13.2 77 2.3 SE 15 17 8 9 1015.8 1014.7 0.2
22/09:00pm 18.4 16.6 13.3 72 2.9 ESE 15 20 8 11 1015.6 1014.5 0.2
22/08:30pm 19.3 16.3 13.7 70 3.3 ESE 22 28 12 15 1015.0 1013.9 0.2
22/08:00pm 19.2 16.8 13.8 71 3.1 ESE 19 24 10 13 1014.5 1013.4 0.2
22/07:30pm 19.5 17.1 13.9 70 3.3 ESE 19 24 10 13 1014.2 1013.1 0.2
22/07:00pm 20.6 18.0 13.8 65 4.0 E 20 30 11 16 1013.9 1012.8 0.2
22/06:30pm 22.0 18.7 13.9 60 4.8 E 24 30 13 16 1013.5 1012.4 0.2
22/06:00pm 23.0 20.0 14.8 60 4.9 ESE 24 32 13 17 1013.3 1012.2 0.2
22/05:30pm 23.2 19.6 14.2 57 5.4 SE 26 35 14 19 1013.1 1012.0 0.2
22/05:00pm 22.4 18.4 14.0 59 5.0 ESE 28 35 15 19 1013.0 1011.9 0.2
22/04:36pm 23.4 20.1 12.7 51 6.2 E 22 43 12 23 1012.5 1011.4 0.2
22/04:30pm 25.5 24.3 12.7 45 7.5 E 11 20 6 11 1012.5 1011.4 0.2
22/04:00pm 24.3 23.2 11.9 45 7.2 E 9 20 5 11 1012.5 1011.4 0.2
22/03:30pm 25.6 25.6 14.1 49 6.9 NNW 7 13 4 7 1012.8 1011.6 0.2
22/03:00pm 23.7 23.8 13.8 53 5.9 NW 6 13 3 7 1013.2 1012.1 0.2
22/02:30pm 22.8 22.2 13.6 56 5.4 SSE 9 13 5 7 1013.6 1012.5 0.2
22/02:00pm 23.5 24.5 15.3 60 5.0 ENE 4 9 2 5 1013.9 1012.8 0.2
22/01:30pm 22.2 21.8 14.1 60 4.8 ENE 9 15 5 8 1014.2 1013.1 0.2
22/01:00pm 23.0 23.1 15.6 63 4.5 NE 9 15 5 8 1014.5 1013.4 0.2
22/12:30pm 22.2 21.3 15.8 67 3.9 NNE 15 24 8 13 1014.9 1013.8 0.2
22/12:00pm 22.0 21.8 15.8 68 3.8 N 11 17 6 9 1015.5 1014.4 0.0
22/11:30am 20.2 20.0 15.6 75 2.8 NE 11 17 6 9 1016.0 1014.9 0.0
22/11:00am 19.5 19.0 15.0 75 2.7 N 11 22 6 12 1016.3 1015.2 0.0
22/10:30am 19.4 19.8 15.3 77 2.5 NW 7 13 4 7 1016.6 1015.5 0.0
22/10:00am 19.2 19.5 15.1 77 2.4 N 7 13 4 7 1016.6 1015.5 0.0
22/09:30am 19.0 20.2 16.8 87 1.3 NNE 6 9 3 5 1016.6 1015.5 0.0
22/09:00am 16.4 16.8 15.4 94 0.6 SSE 7 9 4 5 1016.7 1015.6 10.0
22/08:30am 15.3 14.3 14.5 95 0.5 ESE 13 15 7 8 1016.6 1015.5 10.0
22/08:00am 15.1 14.8 14.5 96 0.3 ENE 9 11 5 6 1016.6 1015.5 10.0
22/07:30am 14.8 14.4 14.2 96 0.3 N 9 11 5 6 1016.4 1015.3 10.0
22/07:00am 15.2 15.1 14.9 98 0.2 NNE 9 11 5 6 1016.0 1014.9 10.0
22/06:30am 15.1 16.7 14.9 99 0.1 CALM 0 0 0 0 1015.7 1014.6 10.0
22/06:00am 14.9 15.6 14.6 98 0.2 WSW 4 9 2 5 1015.3 1014.3 10.0
22/05:30am 15.4 15.5 15.4 100 0.0 E 9 11 5 6 1015.0 1013.9 9.8
22/05:00am 15.1 14.6 14.9 99 0.1 E 11 13 6 7 1014.9 1013.8 9.8
22/04:30am 15.1 15.1 15.1 100 0.0 NE 9 11 5 6 1015.0 1013.9 9.6
22/04:00am 15.5 15.6 15.5 100 0.0 NNE 9 13 5 7 1015.1 1014.1 9.4
22/03:41am 15.6 15.4 15.6 100 0.0 N 11 15 6 8 1015.1 1014.1 8.8
22/03:30am 15.6 15.3 15.4 99 0.1 NNW 11 13 6 7 1014.9 1013.8 8.4
22/03:00am 15.6 17.0 15.3 98 0.2 NNW 2 9 1 5 1015.5 1014.4 6.2
22/02:30am 15.6 14.5 15.3 98 0.2 W 15 20 8 11 1015.6 1014.5 3.4
22/02:17am 15.7 13.8 15.1 96 0.4 W 19 24 10 13 1015.5 1014.4 1.8
22/02:00am 16.2 14.0 14.9 92 0.8 W 20 28 11 15 1015.5 1014.4 0.4
22/01:30am 18.4 17.7 14.3 77 2.4 NE 11 20 6 11 1015.5 1014.4 0.0
22/01:00am 18.7 18.2 15.0 79 2.2 ESE 11 13 6 7 1014.9 1013.8 0.0
22/12:30am 18.1 17.8 15.4 84 1.6 SE 11 15 6 8 1015.0 1013.9 0.0
22/12:00am 17.7 17.0 15.3 86 1.4 SSE 13 17 7 9 1015.2 1014.2 0.0
 
Date/Time
EDT
Temp
°C
App
Temp
°C
Dew
Point
°C
Rel
Hum
%
Delta-T
°C
Wind Press
QNH
hPa
Press
MSL
hPa
Rain since
9am
mm
Dir  Spd
km/h
Gust
km/h
Spd
kts
Gust
kts
21/11:30pm 17.9 17.2 15.3 85 1.5 SE 13 15 7 8 1015.1 1014.1 0.0
21/11:00pm 17.3 16.6 15.3 88 1.2 ESE 13 19 7 10 1014.9 1013.8 0.0
21/10:30pm 17.3 16.0 14.9 86 1.4 SE 15 19 8 10 1014.7 1013.6 0.0
21/10:00pm 18.3 15.3 13.8 75 2.6 S 22 32 12 17 1014.7 1013.6 0.0
21/09:43pm 19.6 16.1 13.3 67 3.7 SW 24 33 13 18 1014.7 1013.6 0.0
21/09:30pm 20.6 16.6 13.1 62 4.4 SW 26 35 14 19 1014.5 1013.4 0.0
21/09:27pm 20.7 16.8 13.2 62 4.4 SW 26 35 14 19 1014.5 1013.4 0.0
21/09:00pm 20.8 19.7 13.0 61 4.5 WNW 11 13 6 7 1013.7 1012.6 0.0
21/08:30pm 21.3 21.1 9.2 46 6.6 CALM 0 0 0 0 1013.2 1012.1 0.0
21/08:00pm 21.8 21.4 8.3 42 7.2 CALM 0 0 0 0 1012.5 1011.4 0.0
21/07:30pm 23.7 23.2 7.8 36 8.5 CALM 0 0 0 0 1011.9 1010.8 0.0
21/07:00pm 25.5 25.1 8.1 33 9.5 CALM 0 0 0 0 1011.8 1010.7 0.0
21/06:30pm 26.1 25.3 8.1 32 9.8 NNE 2 6 1 3 1011.8 1010.7 0.0
21/06:00pm 26.6 24.6 8.6 32 10.0 ENE 9 17 5 9 1011.7 1010.6 0.0
21/05:30pm 26.5 24.0 8.0 31 10.1 NE 11 17 6 9 1011.7 1010.6 0.0
21/05:00pm 27.8 24.9 8.1 29 10.9 ENE 13 17 7 9 1011.8 1010.7 0.0
21/04:30pm 28.0 26.5 8.3 29 10.9 E 6 11 3 6 1012.0 1010.9 0.0
21/04:00pm 27.8 26.0 9.6 32 10.3 W 9 15 5 8 1012.6 1011.5 0.0
21/03:30pm 27.0 25.6 9.4 33 9.9 WSW 7 13 4 7 1012.9 1011.7 0.0
21/03:00pm 26.6 25.0 10.3 36 9.3 N 9 17 5 9 1013.2 1012.1 0.0
21/02:30pm 26.3 24.3 10.0 36 9.2 N 11 17 6 9 1013.6 1012.5 0.0
21/02:00pm 26.2 24.6 8.7 33 9.7 E 7 13 4 7 1014.0 1012.9 0.0
21/01:30pm 26.3 24.4 9.2 34 9.5 ENE 9 22 5 12 1014.4 1013.3 0.0
21/01:00pm 26.0 24.2 12.1 42 8.1 NE 13 20 7 11 1014.9 1013.8 0.0
21/12:30pm 25.9 25.1 11.6 40 8.3 NNE 7 17 4 9 1015.5 1014.4 0.0
21/12:00pm 25.2 24.4 12.8 46 7.3 WSW 9 15 5 8 1016.0 1014.9 0.0
21/11:30am 23.6 23.0 11.6 47 6.9 NNW 6 11 3 6 1016.6 1015.5 0.0
21/11:00am 23.5 22.0 11.9 48 6.7 E 11 19 6 10 1017.1 1016.0 0.0
21/10:30am 22.8 22.0 11.8 50 6.3 SSE 7 13 4 7 1017.5 1016.5 0.0
21/10:00am 21.5 20.9 12.4 56 5.2 SE 7 15 4 8 1017.9 1016.9 0.0
21/09:30am 19.7 19.5 11.7 60 4.5 ESE 4 11 2 6 1017.8 1016.8 0.0
21/09:00am 19.0 19.0 12.3 65 3.8 WNW 4 9 2 5 1017.8 1016.8 0.0
21/08:30am 18.0 18.6 11.8 67 3.5 CALM 0 0 0 0 1017.7 1016.7 0.0
21/08:00am 17.5 17.1 12.4 72 2.9 E 6 7 3 4 1017.5 1016.5 0.0
21/07:30am 15.6 16.6 13.1 85 1.4 CALM 0 0 0 0 1017.3 1016.2 0.0
21/07:00am 14.2 13.5 12.1 87 1.2 S 7 9 4 5 1017.0 1015.9 0.0
21/06:30am 13.4 11.9 11.8 90 0.9 S 11 13 6 7 1016.4 1015.3 0.0
21/06:00am 12.5 10.0 10.9 90 0.9 SSE 15 17 8 9 1016.2 1015.1 0.0
21/05:30am 12.2 9.5 10.4 89 0.9 SSE 15 17 8 9 1015.9 1014.8 0.0
21/05:00am 12.4 10.1 10.3 87 1.1 SSE 13 17 7 9 1015.7 1014.6 0.0
21/04:30am 13.8 11.7 11.0 83 1.5 ESE 13 15 7 8 1015.6 1014.5 0.0
21/04:00am 14.1 11.9 10.9 81 1.7 ESE 13 15 7 8 1015.3 1014.3 0.0
21/03:30am 15.0 13.0 11.4 79 2.0 ESE 13 15 7 8 1015.5 1014.4 0.0
21/03:00am 15.3 13.7 11.5 78 2.1 ESE 11 15 6 8 1015.7 1014.6 0.0
21/02:30am 15.0 13.2 10.8 76 2.3 ESE 11 15 6 8 1015.8 1014.7 0.0
21/02:00am 15.9 13.5 11.3 74 2.5 E 15 22 8 12 1015.8 1014.7 0.0
21/01:30am 16.4 13.0 11.3 72 2.8 E 20 30 11 16 1016.0 1014.9 0.0
21/01:00am 16.7 12.2 11.4 71 2.9 ESE 26 35 14 19 1016.2 1015.1 0.0
21/12:30am 16.7 13.0 11.4 71 2.9 ESE 22 30 12 16 1016.4 1015.3 0.0
21/12:00am 16.9 12.8 11.4 70 3.0 ESE 24 33 13 18 1016.5 1015.4 0.0
 
Date/Time
EDT
Temp
°C
App
Temp
°C
Dew
Point
°C
Rel
Hum
%
Delta-T
°C
Wind Press
QNH
hPa
Press
MSL
hPa
Rain since
9am
mm
Dir  Spd
km/h
Gust
km/h
Spd
kts
Gust
kts
20/11:30pm 17.3 13.2 11.6 69 3.2 ESE 24 37 13 20 1016.4 1015.3 0.0
20/11:00pm 17.6 13.5 11.6 68 3.3 ESE 24 32 13 17 1016.5 1015.4 0.0
20/10:30pm 18.1 14.1 11.7 66 3.6 ESE 24 35 13 19 1016.4 1015.3 0.0
20/10:00pm 19.0 14.2 11.8 63 4.0 ESE 28 39 15 21 1016.2 1015.1 0.0
20/09:30pm 18.0 14.8 11.3 65 3.7 SSE 19 24 10 13 1016.1 1015.0 0.0
20/09:00pm 18.6 15.0 10.7 60 4.3 SSE 20 26 11 14 1015.6 1014.5 0.0
20/08:30pm 19.2 15.4 9.7 54 5.1 S 20 26 11 14 1015.2 1014.2 0.0
20/08:00pm 20.2 16.9 9.5 50 5.8 S 17 20 9 11 1014.8 1013.7 0.0
20/07:30pm 20.6 17.3 7.9 44 6.7 S 15 17 8 9 1014.4 1013.3 0.0

Other formats

Comma delimited format used in spreadsheet applications
http://www.bom.gov.au/fwo/IDN60801/IDN60801.95762.axf

JavaScript Object Notation format (JSON) in row-major order
http://www.bom.gov.au/fwo/IDN60801/IDN60801.95762.json

Data quality

Most of these data are generated automatically and are frequently updated. Quality checks on data are not normally performed. It is possible for incorrect values to appear. Refer to information at About Latest Weather Observations and please check the disclaimer before using these data.